Time;durP1;ratioP1;P1;durP2;ratioP2;P2;SDS_P1;SDS_P2;PMS_P1;PMS_P2;Temp;Humidity;BMP_temperature;BMP_pressure;BME280_temperature;BME280_humidity;BME280_pressure;Samples;Min_cycle;Max_cycle;Signal;HPM_P1;HPM_P2
2021/07/01 00:00:20;;;;;;;3.00;2.42;;;;;;;-143.70;100.00;61379.03;738531;40;20033;-74
2021/07/01 00:00:51;;;;;;;3.80;2.10;;;;;;;-143.70;100.00;61379.03;738996;40;20072;-73
2021/07/01 00:01:22;;;;;;;3.90;2.40;;;;;;;-143.70;100.00;61379.03;736511;40;20073;-73
2021/07/01 00:01:58;;;;;;;2.72;2.30;;;;;;;-143.70;100.00;61379.03;737093;40;20041;-73
2021/07/01 00:02:28;;;;;;;5.68;2.53;;;;;;;-143.70;100.00;61379.03;736547;40;20371;-74
2021/07/01 00:02:59;;;;;;;3.70;2.40;;;;;;;-143.70;100.00;61379.03;738820;40;20041;-74
2021/07/01 00:03:30;;;;;;;5.07;3.10;;;;;;;-143.70;100.00;61379.03;739601;40;20133;-73
2021/07/01 00:04:00;;;;;;;4.90;2.42;;;;;;;-143.70;100.00;61379.03;736285;40;20041;-73
2021/07/01 00:04:31;;;;;;;5.78;2.50;;;;;;;-143.70;100.00;61379.03;735660;40;20026;-74
2021/07/01 00:05:03;;;;;;;3.03;2.30;;;;;;;-143.70;100.00;61379.03;737152;40;20045;-73
2021/07/01 00:05:34;;;;;;;3.85;2.35;;;;;;;-143.70;100.00;61379.03;736616;40;20025;-73
2021/07/01 00:06:05;;;;;;;4.03;2.20;;;;;;;-143.70;100.00;61379.03;739790;40;20043;-73
2021/07/01 00:06:35;;;;;;;4.18;2.20;;;;;;;-143.70;100.00;61379.03;736446;40;20123;-73
2021/07/01 00:07:06;;;;;;;2.55;2.10;;;;;;;-143.70;100.00;61379.03;738031;40;20292;-73
2021/07/01 00:07:36;;;;;;;1.92;1.73;;;;;;;-143.70;100.00;61379.03;737059;40;20085;-74
2021/07/01 00:08:07;;;;;;;5.90;1.90;;;;;;;-143.70;100.00;61379.03;737438;40;20068;-74
2021/07/01 00:08:37;;;;;;;4.82;1.90;;;;;;;-143.70;100.00;61379.03;736876;40;20164;-73
2021/07/01 00:09:14;;;;;;;7.00;2.13;;;;;;;-143.70;100.00;61379.03;737677;40;20045;-73
2021/07/01 00:09:44;;;;;;;7.13;2.25;;;;;;;-143.70;100.00;61379.03;734483;40;20040;-73
2021/07/01 00:10:20;;;;;;;3.08;1.95;;;;;;;-143.70;100.00;61379.03;736171;40;20065;-72
2021/07/01 00:10:52;;;;;;;2.55;2.35;;;;;;;-143.70;100.00;61379.03;738201;40;20612;-73
2021/07/01 00:11:22;;;;;;;3.88;2.90;;;;;;;-143.70;100.00;61379.03;737702;40;20033;-74
2021/07/01 00:11:55;;;;;;;7.40;3.35;;;;;;;-143.70;100.00;61379.03;740538;40;20144;-73
2021/07/01 00:12:26;;;;;;;10.48;3.75;;;;;;;-143.70;100.00;61379.03;740478;40;20028;-73
2021/07/01 00:12:57;;;;;;;19.75;4.50;;;;;;;-143.70;100.00;61379.03;739475;40;20021;-73
2021/07/01 00:13:27;;;;;;;17.70;3.95;;;;;;;-143.70;100.00;61379.03;738066;40;20029;-72
2021/07/01 00:13:58;;;;;;;15.70;3.55;;;;;;;-143.70;100.00;61379.03;739723;40;20033;-73
2021/07/01 00:14:28;;;;;;;6.30;3.20;;;;;;;-143.70;100.00;61379.03;738531;40;20057;-73
2021/07/01 00:14:59;;;;;;;6.90;2.85;;;;;;;-143.70;100.00;61379.03;740181;40;20094;-74
2021/07/01 00:15:31;;;;;;;2.95;2.60;;;;;;;-143.70;100.00;61379.03;739516;40;20040;-73
2021/07/01 00:16:02;;;;;;;3.10;2.22;;;;;;;-143.70;100.00;61379.03;741506;40;20108;-74
2021/07/01 00:16:33;;;;;;;7.43;2.25;;;;;;;-143.70;100.00;61379.03;739971;40;20164;-73
2021/07/01 00:17:03;;;;;;;2.97;2.45;;;;;;;-143.70;100.00;61379.03;739932;40;20060;-74
2021/07/01 00:17:35;;;;;;;14.63;3.95;;;;;;;-143.70;100.00;61379.03;739297;40;20044;-74
2021/07/01 00:18:06;;;;;;;8.00;3.25;;;;;;;-143.70;100.00;61379.03;739405;40;20043;-74
2021/07/01 00:18:37;;;;;;;5.20;2.97;;;;;;;-143.70;100.00;61379.03;738405;40;20114;-73
2021/07/01 00:19:07;;;;;;;3.95;2.50;;;;;;;-143.70;100.00;61379.03;739492;40;20263;-73
2021/07/01 00:19:38;;;;;;;2.60;2.40;;;;;;;-143.70;100.00;61379.03;739501;40;20048;-73
2021/07/01 00:20:12;;;;;;;10.15;2.95;;;;;;;-143.70;100.00;61379.03;740406;40;20041;-72
2021/07/01 00:20:42;;;;;;;7.97;2.33;;;;;;;-143.70;100.00;61379.03;739012;40;20122;-74
2021/07/01 00:21:13;;;;;;;5.80;2.83;;;;;;;-143.70;100.00;61379.03;740607;40;20139;-73
2021/07/01 00:21:44;;;;;;;4.65;2.10;;;;;;;-143.70;100.00;61379.03;738711;40;20036;-74
2021/07/01 00:22:15;;;;;;;4.43;1.83;;;;;;;-143.70;100.00;61379.03;739946;40;20118;-72
2021/07/01 00:22:45;;;;;;;2.83;1.40;;;;;;;-143.70;100.00;61379.03;740253;40;20044;-73
2021/07/01 00:23:16;;;;;;;2.17;1.75;;;;;;;-143.70;100.00;61379.03;740313;40;20422;-74
2021/07/01 00:23:46;;;;;;;1.73;1.63;;;;;;;-143.70;100.00;61379.03;739386;40;20068;-74
2021/07/01 00:24:17;;;;;;;2.58;1.33;;;;;;;-143.70;100.00;61379.03;740048;40;20155;-73
2021/07/01 00:24:48;;;;;;;5.88;1.55;;;;;;;-143.70;100.00;61379.03;740030;40;20047;-73
2021/07/01 00:25:19;;;;;;;2.05;1.30;;;;;;;-143.70;100.00;61379.03;739956;40;20077;-73
2021/07/01 00:25:50;;;;;;;2.30;1.30;;;;;;;-143.70;100.00;61379.03;740201;40;20073;-73
2021/07/01 00:26:20;;;;;;;3.72;1.40;;;;;;;-143.70;100.00;61379.03;735319;40;20048;-73
2021/07/01 00:26:51;;;;;;;3.97;1.30;;;;;;;-143.70;100.00;61379.03;737411;40;20445;-72
2021/07/01 00:27:21;;;;;;;1.30;1.20;;;;;;;-143.70;100.00;61379.03;736774;40;20025;-73
2021/07/01 00:27:52;;;;;;;2.80;1.25;;;;;;;-143.70;100.00;61379.03;737156;40;20041;-72
2021/07/01 00:28:23;;;;;;;4.90;1.70;;;;;;;-143.70;100.00;61379.03;737120;40;20035;-72
2021/07/01 00:28:53;;;;;;;1.30;1.20;;;;;;;-143.70;100.00;61379.03;738371;40;20041;-72
2021/07/01 00:29:24;;;;;;;1.60;1.20;;;;;;;-143.70;100.00;61379.03;740880;40;20167;-72
2021/07/01 00:29:56;;;;;;;2.25;1.42;;;;;;;-143.70;100.00;61379.03;741466;40;20036;-72
2021/07/01 00:30:27;;;;;;;1.50;1.40;;;;;;;-143.70;100.00;61379.03;740159;40;20106;-72
2021/07/01 00:30:57;;;;;;;1.70;1.20;;;;;;;-143.70;100.00;61379.03;739404;40;20052;-74
2021/07/01 00:31:28;;;;;;;2.97;1.55;;;;;;;-143.70;100.00;61379.03;737555;40;20060;-73
2021/07/01 00:31:59;;;;;;;1.60;1.45;;;;;;;-143.70;100.00;61379.03;738428;40;20161;-73
2021/07/01 00:32:29;;;;;;;2.60;1.50;;;;;;;-143.70;100.00;61379.03;739855;40;20323;-73
2021/07/01 00:33:00;;;;;;;1.70;1.42;;;;;;;-143.70;100.00;61379.03;740973;40;20040;-73
2021/07/01 00:33:30;;;;;;;2.17;1.38;;;;;;;-143.70;100.00;61379.03;739009;40;20465;-73
2021/07/01 00:34:02;;;;;;;3.35;1.50;;;;;;;-143.70;100.00;61379.03;738376;40;20048;-74
2021/07/01 00:34:32;;;;;;;3.58;1.70;;;;;;;-143.70;100.00;61379.03;738438;40;20025;-74
2021/07/01 00:35:04;;;;;;;2.33;1.85;;;;;;;-143.70;100.00;61379.03;740885;40;20040;-74
2021/07/01 00:35:35;;;;;;;2.95;1.52;;;;;;;-143.70;100.00;61379.03;740518;40;20094;-73
2021/07/01 00:36:06;;;;;;;8.30;1.70;;;;;;;-143.70;100.00;61379.03;741858;40;20203;-74
2021/07/01 00:36:36;;;;;;;4.78;1.55;;;;;;;-143.70;100.00;61379.03;740518;40;20055;-73
2021/07/01 00:37:07;;;;;;;2.35;1.27;;;;;;;-143.70;100.00;61379.03;741685;40;20369;-73
2021/07/01 00:37:38;;;;;;;1.70;1.60;;;;;;;-143.70;100.00;61379.03;740762;40;20418;-73
2021/07/01 00:38:08;;;;;;;1.73;1.50;;;;;;;-143.70;100.00;61379.03;742282;40;20129;-73
2021/07/01 00:38:39;;;;;;;2.85;1.65;;;;;;;-143.70;100.00;61379.03;739263;40;20180;-74
2021/07/01 00:39:09;;;;;;;2.15;1.50;;;;;;;-143.70;100.00;61379.03;740288;40;20040;-73
2021/07/01 00:39:40;;;;;;;3.58;1.50;;;;;;;-143.70;100.00;61379.03;738879;40;20134;-73
2021/07/01 00:40:12;;;;;;;2.85;1.35;;;;;;;-143.70;100.00;61379.03;739770;40;20048;-73
2021/07/01 00:40:42;;;;;;;4.00;1.80;;;;;;;-143.70;100.00;61379.03;739117;40;20145;-74
2021/07/01 00:41:13;;;;;;;1.65;1.55;;;;;;;-143.70;100.00;61379.03;741660;40;20149;-74
2021/07/01 00:41:43;;;;;;;2.28;1.60;;;;;;;-143.70;100.00;61379.03;741054;40;20028;-74
2021/07/01 00:42:14;;;;;;;1.60;1.50;;;;;;;-143.70;100.00;61379.03;742038;40;20065;-73
2021/07/01 00:42:45;;;;;;;2.22;1.80;;;;;;;-143.70;100.00;61379.03;740388;40;20052;-75
2021/07/01 00:43:15;;;;;;;1.42;1.33;;;;;;;-143.70;100.00;61379.03;738703;40;20393;-73
2021/07/01 00:43:46;;;;;;;4.63;1.65;;;;;;;-143.70;100.00;61379.03;737942;40;20569;-73
2021/07/01 00:44:17;;;;;;;2.97;1.30;;;;;;;-143.70;100.00;61379.03;739112;40;20033;-73
2021/07/01 00:44:47;;;;;;;1.40;1.30;;;;;;;-143.70;100.00;61379.03;738612;40;20017;-73
2021/07/01 00:45:18;;;;;;;1.63;1.38;;;;;;;-143.70;100.00;61379.03;739174;40;20316;-73
2021/07/01 00:45:50;;;;;;;4.20;1.70;;;;;;;-143.70;100.00;61379.03;736324;40;20030;-74
2021/07/01 00:46:20;;;;;;;5.80;1.70;;;;;;;-143.70;100.00;61379.03;734988;40;20045;-73
2021/07/01 00:46:51;;;;;;;3.05;1.50;;;;;;;-143.70;100.00;61379.03;736566;40;20022;-74
2021/07/01 00:47:23;;;;;;;1.60;1.40;;;;;;;-143.70;100.00;61379.03;738049;40;20830;-74
2021/07/01 00:47:54;;;;;;;1.40;1.20;;;;;;;-143.70;100.00;61379.03;738296;40;20427;-74
2021/07/01 00:48:24;;;;;;;3.38;1.20;;;;;;;-143.70;100.00;61379.03;738567;40;20036;-74
2021/07/01 00:48:55;;;;;;;1.98;1.30;;;;;;;-143.70;100.00;61379.03;739325;40;20037;-74
2021/07/01 00:49:26;;;;;;;3.15;1.30;;;;;;;-143.70;100.00;61379.03;735845;40;20061;-73
2021/07/01 00:49:57;;;;;;;1.52;1.42;;;;;;;-143.70;100.00;61379.03;736147;40;20041;-73
2021/07/01 00:50:28;;;;;;;2.00;1.20;;;;;;;-143.70;100.00;61379.03;737111;40;20041;-74
2021/07/01 00:50:59;;;;;;;3.05;1.40;;;;;;;-143.70;100.00;61379.03;736312;40;20213;-73
2021/07/01 00:51:30;;;;;;;1.90;1.25;;;;;;;-143.70;100.00;61379.03;735924;40;20040;-74
2021/07/01 00:52:02;;;;;;;4.18;1.50;;;;;;;-143.70;100.00;61379.03;736263;40;20321;-74
2021/07/01 00:52:32;;;;;;;3.17;1.50;;;;;;;-143.70;100.00;61379.03;737141;40;20037;-74
2021/07/01 00:53:03;;;;;;;1.60;1.45;;;;;;;-143.70;100.00;61379.03;735883;40;20025;-73
2021/07/01 00:53:34;;;;;;;1.33;1.23;;;;;;;-143.70;100.00;61379.03;740590;40;20048;-74
2021/07/01 00:54:04;;;;;;;3.42;1.05;;;;;;;-143.70;100.00;61379.03;736511;40;20040;-72
2021/07/01 00:54:35;;;;;;;2.75;1.42;;;;;;;-143.70;100.00;61379.03;737815;40;20045;-73
2021/07/01 00:55:07;;;;;;;1.73;1.30;;;;;;;-143.70;100.00;61379.03;734140;40;20029;-73
2021/07/01 00:55:38;;;;;;;1.75;1.40;;;;;;;-143.70;100.00;61379.03;736788;40;20118;-72
2021/07/01 00:56:10;;;;;;;2.42;1.33;;;;;;;-143.70;100.00;61379.03;738014;40;20024;-72
2021/07/01 00:56:41;;;;;;;2.95;1.50;;;;;;;-143.70;100.00;61379.03;739456;40;20029;-73
2021/07/01 00:57:12;;;;;;;3.20;1.35;;;;;;;-143.70;100.00;61379.03;739768;40;20265;-72
2021/07/01 00:57:42;;;;;;;2.05;1.30;;;;;;;-143.70;100.00;61379.03;741020;40;20246;-73
2021/07/01 00:58:13;;;;;;;3.35;1.10;;;;;;;-143.70;100.00;61379.03;739920;40;20409;-74
2021/07/01 00:58:43;;;;;;;1.30;1.10;;;;;;;-143.70;100.00;61379.03;740567;40;20425;-73
2021/07/01 00:59:14;;;;;;;4.38;1.20;;;;;;;-143.70;100.00;61379.03;740532;40;20039;-72
2021/07/01 00:59:45;;;;;;;2.28;1.10;;;;;;;-143.70;100.00;61379.03;740445;40;20048;-73
2021/07/01 01:01:25;;;;;;;2.20;1.10;;;;;;;-143.70;100.00;61379.03;742201;40;20025;-73
2021/07/01 01:01:56;;;;;;;1.63;1.25;;;;;;;-143.70;100.00;61379.03;740246;40;20045;-74
2021/07/01 01:02:26;;;;;;;3.35;1.35;;;;;;;-143.70;100.00;61379.03;738712;40;20052;-73
2021/07/01 01:02:57;;;;;;;2.35;1.17;;;;;;;-143.70;100.00;61379.03;736485;40;20053;-73
2021/07/01 01:03:29;;;;;;;1.15;1.00;;;;;;;-143.70;100.00;61379.03;737189;40;20084;-73
2021/07/01 01:04:00;;;;;;;6.72;1.30;;;;;;;-143.70;100.00;61379.03;736273;40;20041;-73
2021/07/01 01:04:31;;;;;;;3.50;1.50;;;;;;;-143.70;100.00;61379.03;737103;40;20041;-73
2021/07/01 01:05:01;;;;;;;1.83;1.30;;;;;;;-143.70;100.00;61379.03;738112;40;20340;-73
2021/07/01 01:05:32;;;;;;;2.08;1.52;;;;;;;-143.70;100.00;61379.03;741273;40;20122;-73
2021/07/01 01:06:04;;;;;;;2.10;1.27;;;;;;;-143.70;100.00;61379.03;740195;40;20051;-74
2021/07/01 01:06:35;;;;;;;1.67;1.20;;;;;;;-143.70;100.00;61379.03;738476;40;20029;-73
2021/07/01 01:07:05;;;;;;;1.40;1.30;;;;;;;-143.70;100.00;61379.03;737744;40;20115;-73
2021/07/01 01:07:36;;;;;;;2.80;1.42;;;;;;;-143.70;100.00;61379.03;737965;40;20033;-71
2021/07/01 01:08:06;;;;;;;3.05;1.27;;;;;;;-143.70;100.00;61379.03;734820;40;20147;-75
2021/07/01 01:08:37;;;;;;;1.48;1.30;;;;;;;-143.70;100.00;61379.03;737431;40;20017;-74
2021/07/01 01:09:09;;;;;;;4.18;1.50;;;;;;;-143.70;100.00;61379.03;736503;40;20601;-74
2021/07/01 01:09:40;;;;;;;3.03;1.40;;;;;;;-143.70;100.00;61379.03;736886;40;20095;-74
2021/07/01 01:10:11;;;;;;;3.80;1.30;;;;;;;-143.70;100.00;61379.03;738259;40;20178;-73
2021/07/01 01:10:41;;;;;;;3.67;1.35;;;;;;;-143.70;100.00;61379.03;739033;40;20032;-74
2021/07/01 01:11:12;;;;;;;3.95;1.40;;;;;;;-143.70;100.00;61379.03;739539;40;20079;-74
2021/07/01 01:11:42;;;;;;;2.90;1.40;;;;;;;-143.70;100.00;61379.03;740629;40;20036;-74
2021/07/01 01:12:13;;;;;;;1.25;1.15;;;;;;;-143.70;100.00;61379.03;739897;40;20099;-73
2021/07/01 01:12:43;;;;;;;1.42;1.10;;;;;;;-143.70;100.00;61379.03;737819;40;20044;-72
2021/07/01 01:13:23;;;;;;;1.88;1.58;;;;;;;-143.70;100.00;61379.03;737888;40;20025;-72
2021/07/01 01:13:56;;;;;;;2.08;1.25;;;;;;;-143.70;100.00;61379.03;735335;40;20126;-72
2021/07/01 01:14:26;;;;;;;2.30;1.55;;;;;;;-143.70;100.00;61379.03;737360;40;20423;-72
2021/07/01 01:14:57;;;;;;;2.92;1.40;;;;;;;-143.70;100.00;61379.03;736270;40;20033;-72
2021/07/01 01:15:28;;;;;;;4.18;1.38;;;;;;;-143.70;100.00;61379.03;738025;40;20141;-72
2021/07/01 01:16:01;;;;;;;1.60;1.10;;;;;;;-143.70;100.00;61379.03;740147;40;20113;-73
2021/07/01 01:16:32;;;;;;;1.63;1.30;;;;;;;-143.70;100.00;61379.03;741630;40;20501;-73
2021/07/01 01:17:03;;;;;;;2.75;1.40;;;;;;;-143.70;100.00;61379.03;738189;40;20025;-73
2021/07/01 01:17:34;;;;;;;1.85;1.40;;;;;;;-143.70;100.00;61379.03;739686;40;20075;-72
2021/07/01 01:18:04;;;;;;;1.58;1.42;;;;;;;-143.70;100.00;61379.03;738003;40;20513;-74
2021/07/01 01:18:35;;;;;;;1.63;1.48;;;;;;;-143.70;100.00;61379.03;738677;40;20435;-73
2021/07/01 01:19:06;;;;;;;4.07;1.40;;;;;;;-143.70;100.00;61379.03;740058;40;20644;-73
2021/07/01 01:19:36;;;;;;;1.25;1.15;;;;;;;-143.70;100.00;61379.03;740050;40;20037;-73
2021/07/01 01:20:07;;;;;;;3.88;1.27;;;;;;;-143.70;100.00;61379.03;739735;40;20117;-72
2021/07/01 01:20:39;;;;;;;1.65;1.10;;;;;;;-143.70;100.00;61379.03;740421;40;20036;-73
2021/07/01 01:21:14;;;;;;;1.42;1.10;;;;;;;-143.70;100.00;61379.03;740021;40;20692;-73
2021/07/01 01:21:47;;;;;;;1.45;1.30;;;;;;;-143.70;100.00;61379.03;740695;40;20125;-73
2021/07/01 01:22:18;;;;;;;4.75;1.30;;;;;;;-143.70;100.00;61379.03;737163;40;20084;-73
2021/07/01 01:22:48;;;;;;;2.03;1.30;;;;;;;-143.70;100.00;61379.03;738262;40;20083;-73
2021/07/01 01:23:20;;;;;;;2.15;1.35;;;;;;;-143.70;100.00;61379.03;739445;40;20072;-72
2021/07/01 01:23:52;;;;;;;4.50;1.33;;;;;;;-143.70;100.00;61379.03;736098;40;20060;-73
2021/07/01 01:24:22;;;;;;;3.72;1.50;;;;;;;-143.70;100.00;61379.03;739488;40;20041;-73
2021/07/01 01:24:53;;;;;;;1.40;1.30;;;;;;;-143.70;100.00;61379.03;737412;40;20348;-73
2021/07/01 01:25:23;;;;;;;5.45;1.70;;;;;;;-143.70;100.00;61379.03;739883;40;20057;-73
2021/07/01 01:25:58;;;;;;;2.80;1.35;;;;;;;-143.70;100.00;61379.03;740525;40;20040;-72
2021/07/01 01:26:28;;;;;;;2.85;1.30;;;;;;;-143.70;100.00;61379.03;737919;40;20086;-74
2021/07/01 01:26:59;;;;;;;10.05;1.30;;;;;;;-143.70;100.00;61379.03;736529;40;20037;-74
2021/07/01 01:27:29;;;;;;;1.83;1.60;;;;;;;-143.70;100.00;61379.03;737572;40;20084;-75
2021/07/01 01:28:00;;;;;;;2.95;1.60;;;;;;;-143.70;100.00;61379.03;736502;40;20036;-74
2021/07/01 01:28:30;;;;;;;2.08;1.48;;;;;;;-143.70;100.00;61379.03;739645;40;20116;-74
2021/07/01 01:29:01;;;;;;;1.60;1.50;;;;;;;-143.70;100.00;61379.03;737185;40;20050;-72
2021/07/01 01:29:41;;;;;;;1.40;1.30;;;;;;;-143.70;100.00;61379.03;740771;40;20034;-71
2021/07/01 01:30:12;;;;;;;1.40;1.30;;;;;;;-143.70;100.00;61379.03;740612;40;20040;-72
2021/07/01 01:30:43;;;;;;;3.08;1.23;;;;;;;-143.70;100.00;61379.03;738386;40;20025;-73
2021/07/01 01:31:14;;;;;;;1.40;1.30;;;;;;;-143.70;100.00;61379.03;741225;40;20093;-74
2021/07/01 01:31:44;;;;;;;1.77;1.33;;;;;;;-143.70;100.00;61379.03;740442;40;20081;-73
2021/07/01 01:32:15;;;;;;;1.67;1.27;;;;;;;-143.70;100.00;61379.03;739006;40;20041;-75
2021/07/01 01:32:46;;;;;;;1.77;1.13;;;;;;;-143.70;100.00;61379.03;738307;40;20029;-72
2021/07/01 01:33:16;;;;;;;2.30;1.30;;;;;;;-143.70;100.00;61379.03;738875;40;20037;-72
2021/07/01 01:33:50;;;;;;;1.60;1.10;;;;;;;-143.70;100.00;61379.03;738779;40;20021;-72
2021/07/01 01:34:21;;;;;;;1.80;1.17;;;;;;;-143.70;100.00;61379.03;742076;40;20334;-73
2021/07/01 01:34:51;;;;;;;1.92;1.10;;;;;;;-143.70;100.00;61379.03;740153;40;20036;-73
2021/07/01 01:35:22;;;;;;;2.85;1.20;;;;;;;-143.70;100.00;61379.03;740710;40;20450;-73
2021/07/01 01:35:52;;;;;;;1.67;1.30;;;;;;;-143.70;100.00;61379.03;736928;40;20075;-72
2021/07/01 01:36:23;;;;;;;1.73;1.42;;;;;;;-143.70;100.00;61379.03;737979;40;20097;-74
2021/07/01 01:36:53;;;;;;;1.50;1.33;;;;;;;-143.70;100.00;61379.03;736113;40;20081;-72
2021/07/01 01:37:24;;;;;;;1.52;1.30;;;;;;;-143.70;100.00;61379.03;737791;40;20446;-73
2021/07/01 01:37:54;;;;;;;1.67;1.00;;;;;;;-143.70;100.00;61379.03;736379;40;20374;-73
2021/07/01 01:38:25;;;;;;;3.22;1.27;;;;;;;-143.70;100.00;61379.03;740902;40;20161;-73
2021/07/01 01:38:56;;;;;;;1.25;1.15;;;;;;;-143.70;100.00;61379.03;739941;40;20108;-73
2021/07/01 01:39:26;;;;;;;1.88;1.20;;;;;;;-143.70;100.00;61379.03;741230;40;20177;-73
2021/07/01 01:39:57;;;;;;;1.25;1.15;;;;;;;-143.70;100.00;61379.03;739312;40;20033;-74
2021/07/01 01:40:28;;;;;;;1.00;0.90;;;;;;;-143.70;100.00;61379.03;739657;40;20308;-73
2021/07/01 01:40:58;;;;;;;3.67;1.20;;;;;;;-143.70;100.00;61379.03;740205;40;20126;-73
2021/07/01 01:41:29;;;;;;;1.50;1.20;;;;;;;-143.70;100.00;61379.03;741141;40;20071;-73
2021/07/01 01:42:00;;;;;;;2.10;1.23;;;;;;;-143.70;100.00;61379.03;737110;40;20283;-73
2021/07/01 01:42:30;;;;;;;7.70;1.60;;;;;;;-143.70;100.00;61379.03;737512;40;20033;-73
2021/07/01 01:43:01;;;;;;;1.25;1.08;;;;;;;-143.70;100.00;61379.03;738183;40;20113;-74
2021/07/01 01:43:31;;;;;;;2.58;1.38;;;;;;;-143.70;100.00;61379.03;739719;40;20084;-73
2021/07/01 01:44:02;;;;;;;2.80;1.13;;;;;;;-143.70;100.00;61379.03;739189;40;20036;-74
2021/07/01 01:44:33;;;;;;;3.65;1.20;;;;;;;-143.70;100.00;61379.03;739665;40;20059;-73
2021/07/01 01:45:04;;;;;;;1.30;0.90;;;;;;;-143.70;100.00;61379.03;736895;40;20057;-74
2021/07/01 01:45:38;;;;;;;1.77;1.05;;;;;;;-143.70;100.00;61379.03;737732;40;20370;-73
2021/07/01 01:46:09;;;;;;;1.50;0.90;;;;;;;-143.70;100.00;61379.03;738293;40;20220;-73
2021/07/01 01:46:40;;;;;;;3.03;1.10;;;;;;;-143.70;100.00;61379.03;736247;40;20057;-74
2021/07/01 01:47:18;;;;;;;2.28;1.00;;;;;;;-143.70;100.00;61379.03;738035;40;20111;-73
2021/07/01 01:47:49;;;;;;;4.38;1.00;;;;;;;-143.70;100.00;61379.03;737681;40;20045;-73
2021/07/01 01:48:22;;;;;;;2.63;1.10;;;;;;;-143.70;100.00;61379.03;738221;40;20022;-73
2021/07/01 01:48:53;;;;;;;1.30;1.20;;;;;;;-143.70;100.00;61379.03;739793;40;20020;-72
2021/07/01 01:49:23;;;;;;;1.67;1.10;;;;;;;-143.70;100.00;61379.03;741320;40;20071;-73
2021/07/01 01:49:54;;;;;;;1.73;1.20;;;;;;;-143.70;100.00;61379.03;737937;40;20035;-73
2021/07/01 01:50:25;;;;;;;1.95;0.85;;;;;;;-143.70;100.00;61379.03;735604;40;20309;-73
2021/07/01 01:50:56;;;;;;;2.80;0.90;;;;;;;-143.70;100.00;61379.03;734685;40;20111;-72
2021/07/01 01:51:26;;;;;;;1.10;1.00;;;;;;;-143.70;100.00;61379.03;733980;40;20232;-72
2021/07/01 01:51:57;;;;;;;3.53;1.20;;;;;;;-143.70;100.00;61379.03;735211;40;20050;-73
2021/07/01 01:52:27;;;;;;;1.10;1.00;;;;;;;-143.70;100.00;61379.03;738804;40;20013;-73
2021/07/01 01:52:58;;;;;;;3.25;1.20;;;;;;;-143.70;100.00;61379.03;737414;40;20516;-74
2021/07/01 01:53:28;;;;;;;1.20;1.10;;;;;;;-143.70;100.00;61379.03;741567;40;20422;-72
2021/07/01 01:53:59;;;;;;;1.77;1.05;;;;;;;-143.70;100.00;61379.03;740386;40;20040;-73
2021/07/01 01:54:30;;;;;;;2.13;1.20;;;;;;;-143.70;100.00;61379.03;740488;40;20126;-73
2021/07/01 01:55:00;;;;;;;2.55;1.02;;;;;;;-143.70;100.00;61379.03;740203;40;20090;-73
2021/07/01 01:55:31;;;;;;;1.35;1.25;;;;;;;-143.70;100.00;61379.03;741576;40;20036;-73
2021/07/01 01:56:01;;;;;;;3.28;1.42;;;;;;;-143.70;100.00;61379.03;740357;40;20076;-73
2021/07/01 01:56:37;;;;;;;3.30;1.10;;;;;;;-143.70;100.00;61379.03;741874;40;20032;-72
2021/07/01 01:57:08;;;;;;;1.60;1.15;;;;;;;-143.70;100.00;61379.03;739449;40;20593;-73
2021/07/01 01:57:43;;;;;;;3.55;1.70;;;;;;;-143.70;100.00;61379.03;740438;40;20039;-73
2021/07/01 01:58:13;;;;;;;3.33;1.60;;;;;;;-143.70;100.00;61379.03;738617;40;20490;-72
2021/07/01 01:58:45;;;;;;;1.80;1.35;;;;;;;-143.70;100.00;61379.03;740910;40;20021;-73
2021/07/01 01:59:16;;;;;;;1.83;1.30;;;;;;;-143.70;100.00;61379.03;740486;40;20032;-74
2021/07/01 01:59:47;;;;;;;3.97;1.30;;;;;;;-143.70;100.00;61379.03;740738;40;20106;-73
2021/07/01 02:00:22;;;;;;;3.92;1.40;;;;;;;-143.70;100.00;61379.03;735580;40;20379;-73
2021/07/01 02:00:52;;;;;;;3.10;1.63;;;;;;;-143.70;100.00;61379.03;737145;40;20036;-72
2021/07/01 02:01:23;;;;;;;1.90;1.35;;;;;;;-143.70;100.00;61379.03;737940;40;20225;-73
2021/07/01 02:01:53;;;;;;;4.07;1.60;;;;;;;-143.70;100.00;61379.03;739756;40;20037;-73
2021/07/01 02:02:24;;;;;;;6.38;1.50;;;;;;;-143.70;100.00;61379.03;740541;40;20029;-72
2021/07/01 02:02:56;;;;;;;2.22;1.60;;;;;;;-143.70;100.00;61379.03;741462;40;20154;-73
2021/07/01 02:03:26;;;;;;;2.50;1.50;;;;;;;-143.70;100.00;61379.03;739730;40;20284;-73
2021/07/01 02:03:57;;;;;;;1.60;1.30;;;;;;;-143.70;100.00;61379.03;741012;40;20051;-73
2021/07/01 02:04:28;;;;;;;3.05;1.60;;;;;;;-143.70;100.00;61379.03;739279;40;20076;-72
2021/07/01 02:04:58;;;;;;;3.42;1.20;;;;;;;-143.70;100.00;61379.03;737074;40;20203;-72
2021/07/01 02:05:29;;;;;;;1.40;1.30;;;;;;;-143.70;100.00;61379.03;737132;40;20037;-73
2021/07/01 02:06:00;;;;;;;2.63;1.60;;;;;;;-143.70;100.00;61379.03;737843;40;20084;-73
2021/07/01 02:06:31;;;;;;;4.43;1.77;;;;;;;-143.70;100.00;61379.03;737591;40;20334;-73
2021/07/01 02:07:01;;;;;;;4.43;1.67;;;;;;;-143.70;100.00;61379.03;740859;40;20028;-72
2021/07/01 02:07:33;;;;;;;2.38;1.75;;;;;;;-143.70;100.00;61379.03;740407;40;20042;-73
2021/07/01 02:08:08;;;;;;;7.93;1.60;;;;;;;-143.70;100.00;61379.03;741117;40;20028;-72
2021/07/01 02:08:38;;;;;;;1.70;1.55;;;;;;;-143.70;100.00;61379.03;741670;40;20072;-72
2021/07/01 02:09:09;;;;;;;3.35;1.70;;;;;;;-143.70;100.00;61379.03;738326;40;20433;-73
2021/07/01 02:09:39;;;;;;;1.70;1.52;;;;;;;-143.70;100.00;61379.03;739446;40;20033;-72
2021/07/01 02:10:13;;;;;;;2.10;1.90;;;;;;;-143.70;100.00;61379.03;738432;40;20109;-72
2021/07/01 02:10:43;;;;;;;5.72;2.00;;;;;;;-143.70;100.00;61379.03;737557;40;20040;-73
2021/07/01 02:11:13;;;;;;;2.95;2.17;;;;;;;-143.70;100.00;61379.03;739396;40;20033;-72
2021/07/01 02:11:44;;;;;;;2.13;1.73;;;;;;;-143.70;100.00;61379.03;739867;40;20072;-72
2021/07/01 02:12:14;;;;;;;2.38;2.17;;;;;;;-143.70;100.00;61379.03;736783;40;20773;-73
2021/07/01 02:12:45;;;;;;;3.03;2.20;;;;;;;-143.70;100.00;61379.03;738570;40;20041;-73
2021/07/01 02:13:16;;;;;;;2.38;2.17;;;;;;;-143.70;100.00;61379.03;738183;40;20157;-72
2021/07/01 02:13:46;;;;;;;3.97;2.60;;;;;;;-143.70;100.00;61379.03;739439;40;20061;-72
2021/07/01 02:14:18;;;;;;;5.00;2.58;;;;;;;-143.70;100.00;61379.03;739382;40;20119;-72
2021/07/01 02:14:48;;;;;;;3.10;2.80;;;;;;;-143.70;100.00;61379.03;741570;40;20037;-72
2021/07/01 02:15:24;;;;;;;3.10;2.63;;;;;;;-143.70;100.00;61379.03;740115;40;20211;-72
2021/07/01 02:15:54;;;;;;;3.10;2.35;;;;;;;-143.70;100.00;61379.03;740965;40;20073;-73
2021/07/01 02:16:25;;;;;;;2.70;2.50;;;;;;;-143.70;100.00;61379.03;739944;40;20092;-73
2021/07/01 02:16:55;;;;;;;5.72;2.72;;;;;;;-143.70;100.00;61379.03;741181;40;20029;-72
2021/07/01 02:17:26;;;;;;;3.63;2.90;;;;;;;-143.70;100.00;61379.03;740291;40;20032;-73
2021/07/01 02:17:57;;;;;;;3.10;2.40;;;;;;;-143.70;100.00;61379.03;740832;40;20315;-73
2021/07/01 02:18:27;;;;;;;3.13;2.83;;;;;;;-143.70;100.00;61379.03;738598;40;20258;-73
2021/07/01 02:18:58;;;;;;;4.20;2.70;;;;;;;-143.70;100.00;61379.03;738952;40;20033;-72
2021/07/01 02:19:28;;;;;;;4.47;2.60;;;;;;;-143.70;100.00;61379.03;738933;40;20107;-72
2021/07/01 02:19:59;;;;;;;4.53;2.90;;;;;;;-143.70;100.00;61379.03;738897;40;20056;-72
2021/07/01 02:20:29;;;;;;;5.82;2.67;;;;;;;-143.70;100.00;61379.03;739804;40;20063;-73
2021/07/01 02:21:00;;;;;;;2.78;2.50;;;;;;;-143.70;100.00;61379.03;740542;40;20090;-72
2021/07/01 02:21:30;;;;;;;3.25;2.95;;;;;;;-143.70;100.00;61379.03;740483;40;20041;-73
2021/07/01 02:22:01;;;;;;;6.50;2.80;;;;;;;-143.70;100.00;61379.03;740936;40;20033;-72
2021/07/01 02:22:31;;;;;;;3.47;2.75;;;;;;;-143.70;100.00;61379.03;736293;40;20029;-73
2021/07/01 02:23:04;;;;;;;5.28;2.95;;;;;;;-143.70;100.00;61379.03;736916;40;20095;-73
2021/07/01 02:23:34;;;;;;;11.05;3.15;;;;;;;-143.70;100.00;61379.03;736643;40;20040;-73
2021/07/01 02:24:05;;;;;;;5.15;2.95;;;;;;;-143.70;100.00;61379.03;738197;40;20455;-72